LGKN weather

Marathon Kotroni Air Base
Marathon, Attica, Greece

Public forecast

Using degrees Celsius for public forecast. Weather courtesy of forecast.io.

METAR (pilot weather report)

Closest report is Eleftherios Venizelos International Airport, 12.1 nm (22.4 km) S. Retrieved 2018/06/21 18:20 UTC (33 minutes ago):

LGAV 211820Z 05006KT 9999 FEW030 23/13 Q1014 NOSIG

TAF (pilot weather forecast)

Closest forecast is Eleftherios Venizelos International Airport, 12.1 nm (22.4 km) S. Retrieved 2018/06/21 18:12 UTC (41 minutes ago):

TAF TAF LGAV 211700Z 2118/2218 VRB05KT 9999 FEW035 BECMG 2207/2209 16010KT BECMG 2213/2215 22012KT